Time;durP1;ratioP1;P1;durP2;ratioP2;P2;SDS_P1;SDS_P2;PMS_P1;PMS_P2;Temp;Humidity;BMP_temperature;BMP_pressure;BME280_temperature;BME280_humidity;BME280_pressure;Samples;Min_cycle;Max_cycle;Signal;HPM_P1;HPM_P2
2022/03/16 00:01:43;;;;;;;1020.90;930.80;;;3.10;99.90;;;;;;5051897;28;20484;-83
2022/03/16 00:04:11;;;;;;;1018.80;927.00;;;3.10;99.90;;;;;;5051708;28;20455;-84
2022/03/16 00:06:37;;;;;;;1019.43;927.67;;;2.90;99.90;;;;;;5051868;28;20850;-83
2022/03/16 00:09:05;;;;;;;1017.27;925.67;;;3.00;99.90;;;;;;5051772;28;20479;-83
2022/03/16 00:11:32;;;;;;;1019.97;927.40;;;2.90;99.90;;;;;;5051833;28;20458;-83
2022/03/16 00:14:00;;;;;;;1018.40;925.40;;;2.90;99.90;;;;;;5051785;28;20459;-83
2022/03/16 00:16:26;;;;;;;1023.37;929.13;;;2.80;99.90;;;;;;5051609;28;20494;-83
2022/03/16 00:18:53;;;;;;;1033.60;938.67;;;2.70;99.90;;;;;;5051494;28;20463;-83
2022/03/16 00:21:20;;;;;;;1020.33;927.37;;;2.80;99.90;;;;;;5051695;28;20452;-83
2022/03/16 00:23:47;;;;;;;1010.00;917.80;;;2.60;99.90;;;;;;5051696;28;20974;-84
2022/03/16 00:26:15;;;;;;;1009.33;917.13;;;2.40;99.90;;;;;;5051588;28;20499;-83
2022/03/16 00:28:42;;;;;;;1008.07;915.80;;;2.30;99.90;;;;;;5053270;28;20451;-83
2022/03/16 00:31:09;;;;;;;1006.80;913.10;;;2.20;99.90;;;;;;5055125;28;20959;-83
2022/03/16 00:33:36;;;;;;;995.60;904.30;;;2.00;99.90;;;;;;5055256;28;20516;-83
2022/03/16 00:36:02;;;;;;;1013.57;917.80;;;1.90;99.90;;;;;;5055227;28;20486;-83
2022/03/16 00:38:29;;;;;;;1011.97;915.90;;;2.00;99.90;;;;;;5073877;22;20495;-82
2022/03/16 00:40:56;;;;;;;1009.43;913.13;;;2.00;99.90;;;;;;5049141;28;20444;-82
2022/03/16 00:43:24;;;;;;;1011.90;915.90;;;2.00;99.90;;;;;;5044136;28;20444;-82
2022/03/16 00:45:51;;;;;;;1017.10;922.17;;;2.00;99.90;;;;;;5044532;28;20988;-80
2022/03/16 00:48:18;;;;;;;1021.60;924.50;;;2.20;99.90;;;;;;5051636;28;20467;-82
2022/03/16 00:50:44;;;;;;;1017.63;922.37;;;2.30;99.90;;;;;;5064626;28;20568;-81
2022/03/16 00:53:11;;;;;;;1018.60;923.77;;;2.40;99.90;;;;;;5064064;28;20452;-82
2022/03/16 00:55:38;;;;;;;1021.07;925.40;;;2.20;99.90;;;;;;5063901;28;20455;-81
2022/03/16 00:58:05;;;;;;;1009.37;914.03;;;2.40;99.90;;;;;;5064042;28;20471;-80
2022/03/16 01:00:33;;;;;;;1015.63;921.37;;;2.50;99.90;;;;;;5064242;28;20466;-81
2022/03/16 01:03:00;;;;;;;1026.37;932.10;;;2.60;99.90;;;;;;5062860;28;20462;-81
2022/03/16 01:05:27;;;;;;;1031.07;934.57;;;2.50;99.90;;;;;;5062407;28;20490;-80
2022/03/16 01:07:54;;;;;;;1039.60;942.90;;;2.40;99.90;;;;;;5064006;28;20468;-82
2022/03/16 01:10:20;;;;;;;1029.60;934.03;;;2.40;99.90;;;;;;5062871;28;20482;-81
2022/03/16 01:12:47;;;;;;;1041.33;944.87;;;2.40;99.90;;;;;;5064037;28;20454;-82
2022/03/16 01:15:14;;;;;;;1034.97;938.83;;;2.40;99.90;;;;;;5064733;28;20455;-81
2022/03/16 01:17:42;;;;;;;1053.67;958.17;;;2.30;99.90;;;;;;5062926;28;20474;-82
2022/03/16 01:20:09;;;;;;;1036.27;940.37;;;2.20;99.90;;;;;;5063695;28;20454;-81
2022/03/16 01:22:36;;;;;;;1041.33;943.97;;;2.00;99.90;;;;;;5064732;28;20448;-81
2022/03/16 01:25:03;;;;;;;1038.13;940.30;;;2.20;99.90;;;;;;5064061;28;20463;-81
2022/03/16 01:27:30;;;;;;;1025.10;927.30;;;2.30;99.90;;;;;;5064326;28;20479;-82
2022/03/16 01:29:56;;;;;;;1023.83;926.60;;;2.20;99.90;;;;;;5064233;28;20478;-81
2022/03/16 01:32:23;;;;;;;1028.80;932.30;;;2.30;99.90;;;;;;5063900;28;20444;-82
2022/03/16 01:34:51;;;;;;;1024.57;927.00;;;2.40;99.90;;;;;;5063893;28;20454;-81
2022/03/16 01:37:18;;;;;;;1020.40;923.00;;;2.50;99.90;;;;;;5063189;28;20459;-81
2022/03/16 01:39:45;;;;;;;1024.63;928.10;;;2.40;99.90;;;;;;5063040;28;20451;-82
2022/03/16 01:42:11;;;;;;;1020.43;923.27;;;2.20;99.90;;;;;;5063965;28;20458;-82
2022/03/16 01:44:46;;;;;;;1035.97;937.77;;;2.30;99.90;;;;;;5064440;28;20964;-80
2022/03/16 01:47:14;;;;;;;1023.33;926.40;;;2.30;99.90;;;;;;5064301;28;20455;-81
2022/03/16 01:49:41;;;;;;;1046.20;949.47;;;2.30;99.90;;;;;;5062322;28;20471;-81
2022/03/16 01:52:10;;;;;;;1048.77;952.17;;;2.50;99.90;;;;;;5063461;28;20458;-81
2022/03/16 01:54:39;;;;;;;1058.93;962.13;;;2.50;99.90;;;;;;5063657;28;20994;-81
2022/03/16 01:57:06;;;;;;;1043.17;946.90;;;2.60;99.90;;;;;;5064071;28;20455;-82
2022/03/16 01:59:33;;;;;;;1046.97;949.63;;;2.70;99.90;;;;;;5063399;28;20467;-82
2022/03/16 02:02:00;;;;;;;1031.27;933.77;;;2.60;99.90;;;;;;5064775;28;20462;-81
2022/03/16 02:04:27;;;;;;;1031.60;933.80;;;2.70;99.90;;;;;;5063778;28;20451;-82
2022/03/16 02:06:53;;;;;;;1021.77;925.90;;;2.80;99.90;;;;;;5063926;28;20839;-81
2022/03/16 02:09:22;;;;;;;1035.30;939.37;;;2.90;99.90;;;;;;5063585;28;20844;-82
2022/03/16 02:11:49;;;;;;;1034.63;939.30;;;3.10;99.90;;;;;;5064003;28;20451;-82
2022/03/16 02:14:17;;;;;;;1049.93;953.33;;;3.10;99.90;;;;;;5064168;28;20451;-81
2022/03/16 02:16:44;;;;;;;1040.23;944.37;;;3.20;99.90;;;;;;5064356;28;20455;-81
2022/03/16 02:19:11;;;;;;;1031.90;936.93;;;3.10;99.90;;;;;;5063565;28;20472;-82
2022/03/16 02:21:40;;;;;;;1036.47;941.43;;;3.10;99.90;;;;;;5063048;28;20455;-82
2022/03/16 02:24:09;;;;;;;1024.37;931.67;;;3.20;99.90;;;;;;5063803;28;20443;-81
2022/03/16 02:26:36;;;;;;;1027.77;934.60;;;3.20;99.90;;;;;;5064212;28;20459;-81
2022/03/16 02:29:03;;;;;;;1024.00;929.90;;;3.20;99.90;;;;;;5062533;28;20475;-81
2022/03/16 02:31:30;;;;;;;1015.57;921.20;;;3.10;99.90;;;;;;5063902;28;20471;-81
2022/03/16 02:33:57;;;;;;;1028.50;932.70;;;2.90;99.90;;;;;;5063027;28;20456;-81
2022/03/16 02:36:23;;;;;;;1019.50;923.50;;;2.70;99.90;;;;;;5064222;28;20487;-81
2022/03/16 02:38:50;;;;;;;1017.00;920.10;;;2.70;99.90;;;;;;5063009;28;20845;-81
2022/03/16 02:41:18;;;;;;;1016.07;919.57;;;2.70;99.90;;;;;;5064562;28;20447;-82
2022/03/16 02:43:45;;;;;;;1016.37;919.27;;;2.50;99.90;;;;;;5063536;28;20448;-81
2022/03/16 02:46:12;;;;;;;1020.13;922.17;;;2.40;99.90;;;;;;5063801;28;20447;-81
2022/03/16 02:48:38;;;;;;;1007.63;909.73;;;2.30;99.90;;;;;;5062327;28;20467;-81
2022/03/16 02:51:05;;;;;;;1022.77;924.00;;;2.10;99.90;;;;;;5063125;28;20471;-81
2022/03/16 02:53:32;;;;;;;1031.73;932.03;;;1.90;99.90;;;;;;5062781;28;20448;-81
2022/03/16 02:55:58;;;;;;;1029.67;928.47;;;1.90;99.90;;;;;;5062918;28;20451;-82
2022/03/16 02:58:26;;;;;;;1031.70;930.00;;;1.90;99.90;;;;;;5062304;28;20853;-81
2022/03/16 03:00:53;;;;;;;1027.40;925.60;;;1.90;99.90;;;;;;5063030;28;20444;-81
2022/03/16 03:03:20;;;;;;;1022.00;922.07;;;1.70;99.90;;;;;;5064033;28;20470;-81
2022/03/16 03:05:47;;;;;;;1030.50;929.17;;;1.60;99.90;;;;;;5063165;28;20483;-83
2022/03/16 03:08:14;;;;;;;1028.67;927.30;;;1.50;99.90;;;;;;5063388;28;20475;-83
2022/03/16 03:10:40;;;;;;;1008.07;907.10;;;1.40;99.90;;;;;;5061826;28;20479;-81
2022/03/16 03:13:07;;;;;;;1003.73;901.80;;;1.30;99.90;;;;;;5058276;28;20454;-81
2022/03/16 03:15:35;;;;;;;1004.67;904.10;;;1.30;99.90;;;;;;5060251;28;20456;-81
2022/03/16 03:18:02;;;;;;;1022.37;921.17;;;1.30;99.90;;;;;;5056062;28;20467;-81
2022/03/16 03:20:29;;;;;;;1016.57;914.57;;;1.30;99.90;;;;;;5060753;28;20454;-81
2022/03/16 03:22:55;;;;;;;1022.97;920.50;;;1.30;99.90;;;;;;5058415;28;20447;-80
2022/03/16 03:25:22;;;;;;;1020.73;920.13;;;1.50;99.90;;;;;;5059610;28;20461;-81
2022/03/16 03:27:49;;;;;;;1026.07;923.37;;;1.50;99.90;;;;;;5060228;28;20467;-82
2022/03/16 03:30:16;;;;;;;1026.00;922.70;;;1.50;99.90;;;;;;5062588;28;20471;-82
2022/03/16 03:32:44;;;;;;;1006.57;906.67;;;1.40;99.90;;;;;;5060739;28;20451;-82
2022/03/16 03:35:10;;;;;;;1018.47;916.30;;;1.40;99.90;;;;;;5048632;28;20445;-82
2022/03/16 03:37:37;;;;;;;1011.77;910.80;;;1.30;99.90;;;;;;5037831;28;20483;-81
2022/03/16 03:40:06;;;;;;;1016.43;916.23;;;1.30;99.90;;;;;;5060290;28;20454;-81
2022/03/16 03:42:32;;;;;;;1020.37;919.83;;;1.40;99.90;;;;;;5059355;28;20451;-83
2022/03/16 03:44:59;;;;;;;1024.00;923.57;;;1.60;99.90;;;;;;5060005;28;20447;-81
2022/03/16 03:47:26;;;;;;;1030.87;931.07;;;1.70;99.90;;;;;;5060741;28;20451;-81
2022/03/16 03:49:54;;;;;;;1023.83;924.47;;;1.80;99.90;;;;;;5059180;28;20456;-81
2022/03/16 03:52:21;;;;;;;1027.20;928.70;;;2.00;99.90;;;;;;5059635;28;20539;-81
2022/03/16 03:54:47;;;;;;;1021.80;924.33;;;2.10;99.90;;;;;;5044510;28;20823;-81
2022/03/16 03:57:14;;;;;;;1046.93;948.50;;;2.10;99.90;;;;;;5058907;28;20459;-80
2022/03/16 03:59:41;;;;;;;1031.37;933.50;;;2.10;99.90;;;;;;5059280;28;20498;-82
2022/03/16 04:02:08;;;;;;;1041.10;943.63;;;1.90;99.90;;;;;;5061473;28;20448;-81
2022/03/16 04:04:34;;;;;;;1028.93;932.20;;;1.90;99.90;;;;;;5060258;28;20458;-81
2022/03/16 04:07:02;;;;;;;1019.47;923.83;;;1.90;99.90;;;;;;5063430;28;20454;-81
2022/03/16 04:09:29;;;;;;;1028.33;930.17;;;1.90;99.90;;;;;;5047632;28;20466;-81
2022/03/16 04:11:56;;;;;;;1007.83;911.13;;;1.90;99.90;;;;;;5063425;28;20474;-82
2022/03/16 04:14:23;;;;;;;1011.90;913.63;;;1.90;99.90;;;;;;5064077;28;20447;-81
2022/03/16 04:16:49;;;;;;;1007.93;909.20;;;1.80;99.90;;;;;;5061991;28;20462;-82
2022/03/16 04:19:16;;;;;;;1006.23;907.63;;;1.70;99.90;;;;;;5060887;28;20474;-81
2022/03/16 04:21:43;;;;;;;1014.93;916.73;;;1.60;99.90;;;;;;5059587;28;20451;-81
2022/03/16 04:24:11;;;;;;;1019.63;920.03;;;1.70;99.90;;;;;;5057787;28;20462;-82
2022/03/16 04:26:38;;;;;;;1011.07;912.50;;;1.70;99.90;;;;;;5061157;28;20538;-81
2022/03/16 04:29:05;;;;;;;1008.07;908.77;;;1.80;99.90;;;;;;5064013;28;20471;-82
2022/03/16 04:31:31;;;;;;;1008.80;909.27;;;1.80;99.90;;;;;;5064482;28;20478;-82
2022/03/16 04:33:58;;;;;;;992.83;896.43;;;1.90;99.90;;;;;;5067291;28;20451;-82
2022/03/16 04:36:26;;;;;;;1009.13;910.43;;;1.90;99.90;;;;;;5062215;28;20455;-82
2022/03/16 04:38:52;;;;;;;1014.47;915.67;;;1.90;99.90;;;;;;5060266;28;20541;-81
2022/03/16 04:41:21;;;;;;;1016.13;918.30;;;2.00;99.90;;;;;;5060540;28;20450;-81
2022/03/16 04:43:47;;;;;;;1017.37;919.70;;;2.00;99.90;;;;;;5046801;28;20451;-82
2022/03/16 04:46:14;;;;;;;1007.00;909.80;;;2.00;99.90;;;;;;5064001;28;20451;-82
2022/03/16 04:48:41;;;;;;;1009.97;912.53;;;1.90;99.90;;;;;;5065319;28;20474;-82
2022/03/16 04:51:08;;;;;;;1007.93;910.73;;;2.00;99.90;;;;;;5064109;28;20475;-82
2022/03/16 04:53:34;;;;;;;1000.60;905.47;;;2.00;99.90;;;;;;5067049;28;20443;-82
2022/03/16 04:58:50;;;;;;;997.27;900.90;;;2.00;99.90;;;;;;5061174;28;20523;-81
2022/03/16 05:01:17;;;;;;;994.07;898.00;;;2.10;99.90;;;;;;5067660;28;20478;-82
2022/03/16 05:03:46;;;;;;;1000.23;903.73;;;2.00;99.90;;;;;;5067808;28;20454;-83
2022/03/16 05:06:13;;;;;;;990.83;895.23;;;2.10;99.90;;;;;;5068548;28;20444;-83
2022/03/16 05:08:39;;;;;;;993.07;897.13;;;2.10;99.90;;;;;;5069243;28;20467;-82
2022/03/16 05:11:08;;;;;;;991.33;894.20;;;2.00;99.90;;;;;;5066612;28;20455;-82
2022/03/16 05:13:35;;;;;;;981.20;884.60;;;2.00;99.90;;;;;;5065976;28;20823;-82
2022/03/16 05:16:06;;;;;;;979.47;881.83;;;2.00;99.90;;;;;;5065250;28;20466;-82
2022/03/16 05:18:32;;;;;;;983.07;884.47;;;2.00;99.90;;;;;;5064912;28;20559;-80
2022/03/16 05:20:59;;;;;;;990.87;894.77;;;2.00;99.90;;;;;;5066461;28;20452;-83
2022/03/16 05:23:29;;;;;;;974.97;879.07;;;1.90;99.90;;;;;;5067270;28;20454;-81
2022/03/16 05:25:55;;;;;;;976.83;879.40;;;1.80;99.90;;;;;;5063974;28;20507;-83
2022/03/16 05:28:22;;;;;;;975.10;879.20;;;1.80;99.90;;;;;;5065097;28;20474;-82
2022/03/16 05:30:49;;;;;;;970.77;873.07;;;1.60;99.90;;;;;;5064929;28;20471;-82
2022/03/16 05:33:17;;;;;;;987.30;888.13;;;1.60;99.90;;;;;;5064932;28;20458;-82
2022/03/16 05:35:44;;;;;;;970.00;872.20;;;1.50;99.90;;;;;;5064846;28;20451;-83
2022/03/16 05:38:12;;;;;;;986.50;887.80;;;1.60;99.90;;;;;;5065237;28;20479;-82
2022/03/16 05:40:51;;;;;;;984.47;883.63;;;1.50;99.90;;;;;;5066977;28;20951;-81
2022/03/16 05:43:32;;;;;;;978.67;879.20;;;1.50;99.90;;;;;;5067172;28;20520;-81
2022/03/16 05:53:12;;;;;;;984.53;883.30;;;1.70;99.90;;;;;;5056482;28;20435;-80
2022/03/16 05:55:39;;;;;;;982.03;881.53;;;1.70;99.90;;;;;;5066729;28;20443;-81
2022/03/16 05:58:06;;;;;;;973.63;871.20;;;1.60;99.90;;;;;;5064897;28;20470;-79
2022/03/16 06:04:34;;;;;;;958.40;859.10;;;1.70;99.90;;;;;;5060753;28;20469;-80
2022/03/16 06:07:00;;;;;;;965.77;866.40;;;1.80;99.90;;;;;;5041602;28;20451;-79
2022/03/16 06:09:28;;;;;;;955.60;857.30;;;2.00;99.90;;;;;;5068654;28;20465;-80
2022/03/16 06:11:55;;;;;;;949.63;853.30;;;2.00;99.90;;;;;;5070194;28;20518;-81
2022/03/16 06:14:22;;;;;;;962.90;865.47;;;2.00;99.90;;;;;;5068998;28;20447;-81
2022/03/16 06:16:52;;;;;;;958.40;862.60;;;2.10;99.90;;;;;;5064621;28;20539;-82
2022/03/16 06:19:19;;;;;;;948.53;852.60;;;2.10;99.90;;;;;;5064260;28;20471;-81
2022/03/16 06:21:47;;;;;;;953.30;858.50;;;2.20;99.90;;;;;;5064031;28;20455;-81
2022/03/16 06:24:14;;;;;;;950.30;854.10;;;2.30;99.90;;;;;;5062829;28;20452;-81
2022/03/16 06:26:42;;;;;;;942.67;848.27;;;2.20;99.90;;;;;;5063241;28;20451;-81
2022/03/16 06:29:09;;;;;;;950.30;855.60;;;2.30;99.90;;;;;;5064527;28;20467;-81
2022/03/16 06:31:36;;;;;;;935.97;842.83;;;2.40;99.90;;;;;;5064984;28;20463;-81
2022/03/16 06:34:04;;;;;;;957.80;864.37;;;2.50;99.90;;;;;;5066354;28;20451;-81
2022/03/16 06:36:31;;;;;;;939.03;847.63;;;2.60;99.90;;;;;;5065146;28;20458;-81
2022/03/16 06:38:57;;;;;;;945.33;854.23;;;2.80;99.90;;;;;;5075586;22;20494;-85
2022/03/16 06:41:25;;;;;;;941.73;850.47;;;2.90;99.90;;;;;;5039431;28;20441;-86
2022/03/16 06:43:53;;;;;;;934.93;844.30;;;2.90;99.90;;;;;;5040714;28;20475;-85
2022/03/16 06:46:19;;;;;;;917.97;828.13;;;3.00;99.90;;;;;;5050812;28;20448;-84
2022/03/16 06:48:46;;;;;;;917.00;828.10;;;3.10;99.90;;;;;;5059130;28;20493;-85
2022/03/16 06:51:13;;;;;;;896.43;809.10;;;3.30;99.90;;;;;;5048519;28;20479;-84
2022/03/16 06:53:40;;;;;;;908.67;820.67;;;3.20;99.90;;;;;;5044087;28;20455;-83
2022/03/16 06:56:06;;;;;;;898.13;810.73;;;3.30;99.90;;;;;;5042730;28;20459;-84
2022/03/16 06:58:33;;;;;;;894.77;807.17;;;3.40;99.90;;;;;;5045031;28;20507;-84
2022/03/16 07:01:02;;;;;;;894.55;807.45;;;3.40;99.90;;;;;;5041430;28;20443;-83
2022/03/16 07:03:29;;;;;;;887.50;801.27;;;3.50;99.90;;;;;;5053659;28;20247;-82
2022/03/16 07:05:56;;;;;;;874.33;788.43;;;3.60;99.90;;;;;;5053056;28;20487;-82
2022/03/16 07:08:22;;;;;;;863.13;777.90;;;3.60;99.90;;;;;;5053398;28;20471;-84
2022/03/16 07:10:49;;;;;;;858.40;772.03;;;3.70;99.90;;;;;;5053364;28;20538;-84
2022/03/16 07:13:16;;;;;;;873.27;787.03;;;3.80;99.90;;;;;;5052901;28;20805;-84
2022/03/16 07:15:44;;;;;;;859.47;773.57;;;3.90;99.90;;;;;;5054751;28;20459;-84
2022/03/16 07:18:13;;;;;;;866.57;781.07;;;3.90;99.90;;;;;;5053566;28;20475;-82
2022/03/16 07:20:40;;;;;;;878.50;791.93;;;3.90;99.90;;;;;;5053740;28;20531;-82
2022/03/16 07:23:10;;;;;;;876.67;790.43;;;4.00;99.90;;;;;;5054962;28;20811;-83
2022/03/16 07:25:38;;;;;;;862.70;776.30;;;4.00;99.90;;;;;;5053185;28;20809;-84
2022/03/16 07:28:05;;;;;;;873.13;788.70;;;4.10;99.90;;;;;;5053390;28;20536;-84
2022/03/16 07:30:33;;;;;;;864.07;778.80;;;4.20;99.90;;;;;;5053704;28;21058;-82
2022/03/16 07:33:00;;;;;;;880.87;794.63;;;4.30;99.90;;;;;;5052630;28;20548;-84
2022/03/16 07:35:28;;;;;;;878.10;792.70;;;4.30;99.90;;;;;;5053195;28;20459;-84
2022/03/16 07:37:56;;;;;;;876.50;792.10;;;4.40;99.90;;;;;;5027856;28;20464;-82
2022/03/16 07:40:24;;;;;;;872.30;786.60;;;4.60;99.90;;;;;;5018605;28;20449;-83
2022/03/16 07:42:52;;;;;;;870.97;785.83;;;4.70;99.90;;;;;;5019571;28;20457;-84
2022/03/16 07:45:20;;;;;;;871.43;786.00;;;4.80;99.90;;;;;;5017947;28;20453;-84
2022/03/16 07:47:47;;;;;;;869.27;784.20;;;4.80;99.90;;;;;;5017160;28;20463;-84
2022/03/16 07:50:14;;;;;;;882.07;798.83;;;5.00;99.90;;;;;;5017867;28;20894;-84
2022/03/16 07:52:42;;;;;;;870.37;788.50;;;5.00;99.90;;;;;;5017860;28;20848;-84
2022/03/16 07:55:10;;;;;;;867.50;786.40;;;5.10;99.90;;;;;;5017138;28;20445;-84
2022/03/16 07:57:37;;;;;;;881.23;800.53;;;5.20;99.90;;;;;;5018228;28;20464;-83
2022/03/16 08:00:05;;;;;;;853.27;776.43;;;5.20;99.90;;;;;;5017510;28;20484;-84
2022/03/16 08:02:31;;;;;;;861.90;787.17;;;5.30;99.90;;;;;;5018115;28;20457;-83
2022/03/16 08:05:00;;;;;;;849.23;774.80;;;5.40;99.90;;;;;;5017415;28;20464;-84
2022/03/16 08:07:27;;;;;;;857.13;782.97;;;5.50;99.90;;;;;;5016592;28;20460;-83
2022/03/16 08:09:55;;;;;;;849.50;777.20;;;5.50;99.90;;;;;;5016477;28;20477;-83
2022/03/16 08:12:22;;;;;;;856.83;788.40;;;5.70;99.90;;;;;;5016328;28;20477;-83
2022/03/16 08:14:48;;;;;;;862.63;793.27;;;5.70;99.90;;;;;;5017582;28;20468;-83
2022/03/16 08:17:15;;;;;;;867.27;797.60;;;5.80;99.90;;;;;;5016528;28;20456;-84
2022/03/16 08:19:42;;;;;;;870.50;801.10;;;5.80;99.90;;;;;;5015689;28;20484;-82
2022/03/16 08:22:09;;;;;;;846.23;782.53;;;6.00;99.90;;;;;;5016769;28;20456;-82
2022/03/16 08:24:36;;;;;;;823.10;764.00;;;6.20;99.90;;;;;;5017098;28;20458;-82
2022/03/16 08:27:05;;;;;;;810.10;753.90;;;6.20;99.90;;;;;;5017728;28;20460;-83
2022/03/16 08:29:31;;;;;;;745.83;697.40;;;6.50;99.90;;;;;;5017034;28;20473;-85
2022/03/16 08:31:58;;;;;;;746.10;697.60;;;6.40;99.90;;;;;;5016067;28;20476;-84
2022/03/16 08:34:25;;;;;;;710.67;665.83;;;6.50;99.90;;;;;;5016461;28;20480;-84
2022/03/16 08:36:52;;;;;;;633.83;597.70;;;6.70;99.90;;;;;;5016176;28;20456;-84
2022/03/16 08:39:19;;;;;;;629.03;593.30;;;6.70;99.90;;;;;;5015429;28;20484;-84
2022/03/16 08:41:45;;;;;;;514.67;489.10;;;7.00;99.90;;;;;;5016734;28;20456;-84
2022/03/16 08:44:14;;;;;;;529.43;503.00;;;6.90;99.90;;;;;;5016812;28;20973;-84
2022/03/16 08:46:40;;;;;;;501.93;478.33;;;7.00;99.90;;;;;;5016527;28;20460;-85
2022/03/16 08:49:07;;;;;;;364.33;348.57;;;7.10;99.90;;;;;;5015024;28;20476;-84
2022/03/16 08:51:34;;;;;;;394.63;377.80;;;7.20;99.90;;;;;;5015269;28;20453;-84
2022/03/16 08:54:00;;;;;;;375.57;360.30;;;7.30;99.90;;;;;;5015492;28;20457;-84
2022/03/16 08:56:27;;;;;;;205.00;195.57;;;7.40;99.90;;;;;;5014936;28;20457;-84
2022/03/16 08:58:54;;;;;;;124.93;118.37;;;7.50;99.90;;;;;;5015163;28;20481;-84
2022/03/16 09:01:23;;;;;;;102.27;96.93;;;7.70;99.90;;;;;;5015080;28;20461;-84
2022/03/16 09:03:50;;;;;;;57.97;53.97;;;7.90;99.90;;;;;;5015963;28;20460;-83
2022/03/16 09:06:17;;;;;;;35.15;31.65;;;8.10;99.90;;;;;;5015272;28;20944;-83
2022/03/16 09:08:43;;;;;;;35.17;30.47;;;8.40;99.90;;;;;;5015616;28;20214;-84
2022/03/16 09:11:10;;;;;;;23.03;20.13;;;8.50;99.90;;;;;;5015544;28;20457;-84
2022/03/16 09:13:37;;;;;;;28.23;22.83;;;8.50;99.90;;;;;;5014683;28;20447;-84
2022/03/16 09:16:04;;;;;;;25.67;19.43;;;8.70;99.90;;;;;;5015809;28;20293;-82
2022/03/16 09:18:32;;;;;;;24.93;21.07;;;8.80;99.90;;;;;;5015068;28;20481;-84
2022/03/16 09:21:01;;;;;;;23.50;18.50;;;8.90;99.90;;;;;;5015549;28;20950;-84
2022/03/16 09:23:31;;;;;;;27.50;20.27;;;9.00;99.90;;;;;;5016172;28;20862;-86
2022/03/16 09:25:58;;;;;;;23.63;18.43;;;9.30;99.90;;;;;;5015216;28;20453;-84
2022/03/16 09:28:25;;;;;;;21.87;16.63;;;9.60;99.90;;;;;;5015603;28;20480;-84
2022/03/16 09:30:52;;;;;;;23.30;18.13;;;9.80;99.70;;;;;;5047546;28;20955;-82
2022/03/16 09:33:18;;;;;;;19.73;15.97;;;10.20;98.50;;;;;;5033818;28;20476;-84
2022/03/16 09:35:48;;;;;;;24.93;20.20;;;10.30;93.80;;;;;;5055542;28;20835;-85
2022/03/16 09:38:15;;;;;;;20.67;17.10;;;10.60;94.30;;;;;;5045445;28;20511;-86
2022/03/16 09:40:43;;;;;;;21.57;17.10;;;10.80;92.70;;;;;;5054829;28;20524;-82
2022/03/16 09:43:11;;;;;;;21.70;17.73;;;11.00;91.70;;;;;;5046512;28;20452;-86
2022/03/16 09:45:53;;;;;;;21.50;17.70;;;11.20;91.10;;;;;;5057611;28;20459;-85
2022/03/16 09:48:21;;;;;;;21.17;16.70;;;11.20;85.10;;;;;;5044613;28;20472;-84
2022/03/16 09:50:49;;;;;;;19.27;15.50;;;11.30;83.70;;;;;;5048231;28;20503;-84
2022/03/16 09:53:16;;;;;;;20.20;15.50;;;11.40;80.40;;;;;;5037243;28;20483;-84
2022/03/16 09:55:43;;;;;;;19.80;16.20;;;11.50;80.70;;;;;;5041584;28;20456;-87
2022/03/16 09:58:10;;;;;;;17.57;14.00;;;11.60;78.40;;;;;;5035028;28;20477;-85
2022/03/16 10:00:38;;;;;;;16.30;13.07;;;11.80;75.00;;;;;;5034356;28;20453;-85
2022/03/16 10:03:05;;;;;;;18.23;15.10;;;11.80;71.70;;;;;;5034809;28;20452;-85
2022/03/16 10:05:32;;;;;;;19.53;14.87;;;12.10;71.50;;;;;;5045906;28;20479;-85
2022/03/16 10:08:02;;;;;;;20.00;13.70;;;12.20;72.60;;;;;;5055005;28;20489;-85
2022/03/16 10:13:19;;;;;;;17.80;14.47;;;12.70;65.10;;;;;;5035774;28;20608;-85
2022/03/16 10:15:46;;;;;;;17.50;12.87;;;12.90;63.70;;;;;;5051723;28;20841;-85
2022/03/16 10:18:16;;;;;;;17.07;12.70;;;13.40;61.60;;;;;;5050804;28;20486;-85
2022/03/16 10:20:43;;;;;;;16.50;13.03;;;13.30;59.50;;;;;;5034435;28;20514;-85
2022/03/16 10:23:14;;;;;;;18.73;13.90;;;13.50;61.20;;;;;;5039090;28;20451;-84
2022/03/16 10:25:42;;;;;;;16.80;12.47;;;13.50;58.20;;;;;;5054743;28;20491;-86
2022/03/16 10:28:16;;;;;;;15.27;12.77;;;13.80;58.10;;;;;;5050331;28;20896;-85
2022/03/16 10:30:55;;;;;;;16.57;12.67;;;14.00;54.50;;;;;;5034980;28;20464;-85
2022/03/16 10:33:23;;;;;;;13.83;11.13;;;13.90;52.20;;;;;;5040502;28;20544;-86
2022/03/16 10:35:57;;;;;;;17.43;12.60;;;14.10;51.40;;;;;;5054374;28;20455;-87
2022/03/16 10:38:26;;;;;;;15.53;13.03;;;14.00;49.50;;;;;;5049833;28;20480;-86
2022/03/16 10:40:56;;;;;;;14.57;11.60;;;14.50;49.60;;;;;;5033801;28;20459;-86
2022/03/16 10:49:02;;;;;;;15.20;11.33;;;15.00;47.50;;;;;;5030019;28;21092;-85
2022/03/16 10:51:29;;;;;;;16.30;12.20;;;15.30;44.10;;;;;;5040191;28;20453;-84
2022/03/16 10:53:58;;;;;;;16.40;11.77;;;15.20;42.80;;;;;;5038905;28;20500;-85
2022/03/16 10:56:27;;;;;;;14.83;12.00;;;15.40;44.20;;;;;;5034316;28;20450;-86
2022/03/16 10:58:55;;;;;;;15.00;12.50;;;15.80;41.10;;;;;;5032452;28;20477;-86
2022/03/16 11:01:24;;;;;;;15.80;12.90;;;15.20;36.60;;;;;;5051107;28;20459;-85
2022/03/16 11:03:51;;;;;;;14.50;11.40;;;15.30;37.10;;;;;;5039200;28;20445;-85
2022/03/16 11:06:21;;;;;;;13.10;11.33;;;15.80;39.40;;;;;;5034509;28;20449;-85
2022/03/16 11:08:50;;;;;;;13.83;11.47;;;15.60;35.90;;;;;;5044119;28;20885;-85
2022/03/16 11:14:04;;;;;;;17.00;11.10;;;16.10;33.50;;;;;;5037482;28;20527;-85
2022/03/16 11:16:32;;;;;;;12.17;10.40;;;15.90;31.80;;;;;;5055230;28;20457;-85
2022/03/16 11:19:00;;;;;;;15.47;11.30;;;16.10;31.90;;;;;;5035347;28;20470;-84
2022/03/16 11:21:33;;;;;;;15.00;11.90;;;16.50;33.50;;;;;;5034280;28;20458;-83
2022/03/16 11:24:18;;;;;;;16.80;11.50;;;15.80;33.10;;;;;;5053789;28;20451;-85
2022/03/16 11:27:17;;;;;;;14.40;12.20;;;15.20;35.60;;;;;;5053812;28;20466;-84
2022/03/16 11:29:59;;;;;;;15.67;12.57;;;15.20;36.60;;;;;;5015316;28;20486;-85
2022/03/16 11:32:25;;;;;;;15.67;11.53;;;15.20;35.10;;;;;;5013352;28;20538;-84
2022/03/16 11:34:58;;;;;;;14.77;12.33;;;15.00;34.80;;;;;;5045075;28;20461;-85
2022/03/16 11:37:34;;;;;;;15.27;10.60;;;15.10;35.40;;;;;;5014771;28;20483;-84
2022/03/16 11:40:11;;;;;;;13.77;11.20;;;15.00;35.00;;;;;;5048144;28;20512;-85
2022/03/16 11:42:44;;;;;;;13.63;11.50;;;15.00;35.80;;;;;;5055592;28;20479;-85
2022/03/16 11:45:34;;;;;;;13.90;12.13;;;15.00;37.10;;;;;;5037645;28;20646;-82
2022/03/16 11:48:21;;;;;;;15.30;11.90;;;15.20;36.70;;;;;;5039716;28;20530;-84
2022/03/16 11:51:24;;;;;;;14.83;11.67;;;15.10;36.40;;;;;;5016082;28;20491;-85
2022/03/16 11:54:08;;;;;;;14.77;11.00;;;15.30;37.50;;;;;;5025586;28;20469;-84
2022/03/16 11:56:49;;;;;;;17.57;11.20;;;15.00;36.60;;;;;;5032104;28;20876;-85
2022/03/16 11:59:36;;;;;;;15.13;11.33;;;15.00;36.70;;;;;;5032531;28;20498;-85
2022/03/16 12:02:26;;;;;;;16.57;12.90;;;15.30;33.00;;;;;;5034315;28;20467;-85
2022/03/16 12:05:01;;;;;;;13.20;11.17;;;15.30;37.30;;;;;;5033690;28;20445;-85
2022/03/16 12:07:34;;;;;;;14.70;11.13;;;15.40;35.50;;;;;;5033805;28;20507;-84
2022/03/16 12:10:03;;;;;;;14.23;12.17;;;15.30;35.20;;;;;;5033025;28;20499;-86
2022/03/16 12:15:23;;;;;;;13.97;11.73;;;15.40;33.30;;;;;;5032173;28;21141;-86
2022/03/16 12:18:34;;;;;;;13.70;10.23;;;15.80;35.50;;;;;;5033602;28;20457;-85
2022/03/16 12:30:44;;;;;;;13.30;11.20;;;16.80;29.60;;;;;;5040445;28;20952;-85
2022/03/16 12:33:11;;;;;;;13.90;11.40;;;17.00;29.10;;;;;;5038855;28;20476;-86
2022/03/16 12:35:38;;;;;;;14.97;10.77;;;16.60;27.60;;;;;;5040808;28;20568;-85
2022/03/16 12:43:33;;;;;;;11.90;9.70;;;16.50;26.30;;;;;;5041854;28;20456;-82
2022/03/16 12:46:16;;;;;;;18.30;10.20;;;16.80;25.80;;;;;;5042089;28;20451;-85
2022/03/16 12:48:49;;;;;;;14.57;9.73;;;16.70;27.00;;;;;;5041369;28;20463;-81
2022/03/16 12:51:32;;;;;;;14.13;9.53;;;16.30;25.40;;;;;;5062208;28;20456;-81
2022/03/16 12:53:59;;;;;;;11.90;7.93;;;16.40;25.60;;;;;;5063219;28;20488;-82
2022/03/16 12:56:26;;;;;;;13.50;10.00;;;16.00;26.50;;;;;;5062657;28;20453;-81
2022/03/16 12:58:54;;;;;;;14.03;10.70;;;15.60;27.50;;;;;;5061387;28;20475;-82
2022/03/16 13:01:23;;;;;;;13.97;11.27;;;15.60;30.50;;;;;;5061923;28;20454;-81
2022/03/16 13:04:00;;;;;;;14.47;10.37;;;15.40;31.00;;;;;;5061351;28;20532;-81
2022/03/16 13:06:29;;;;;;;16.80;12.60;;;15.20;30.10;;;;;;5048459;28;20461;-81